Currently 59°F in Riverside (Presidential Park), California, USA
59°F
61°F / 54°F
1 mph W
0.00"
Monday, May 27, 2024 8:00 AM PDT

Riverside (Presidential Park), California Weather Summary
Last 36 Hours

Temperature Winds Hourly Humidity Dewpoint
Time Report Norm Report Norm Max Gusts Precip. Rpt. Norm Rpt. Norm Pressure
1Mon 08:00 AM  58.7°F  61°F  1 mph W  2 mph  4 mph  0.00"  83%  79%  53°F  54°F  N/A
Mon 07:00 AM  55.9°F  59°F  calm  1 mph  3 mph  0.00"  86%  82%  52°F  53°F  N/A
3Mon 06:02 AM  54.5°F  58°F  1 mph E  2 mph  3 mph  ----  85%  82%  50°F  52°F  N/A
Mon 06:00 AM  55.0°F  58°F  1 mph E  2 mph  3 mph  0.00"  85%  82%  50°F  52°F  N/A
Mon 05:00 AM  55.6°F  58°F  1 mph SE  2 mph  3 mph  0.00"  84%  81%  51°F  52°F  N/A
Mon 04:00 AM  56.4°F  59°F  calm  1 mph  2 mph  0.00"  84%  80%  51°F  52°F  N/A
Mon 03:00 AM  56.9°F  59°F  1 mph SE  2 mph  2 mph  0.00"  81%  79%  51°F  53°F  N/A
Mon 02:00 AM  58.3°F  60°F  calm  2 mph  2 mph  0.00"  79%  78%  52°F  53°F  N/A
Mon 01:00 AM  59.4°F  61°F  calm  2 mph  3 mph  0.00"  81%  76%  53°F  53°F  N/A
2Mon 12:01 AM  60.9°F  62°F  calm  2 mph  4 mph  ----  77%  74%  53°F  53°F  N/A
Mon 12:00 AM  60.8°F  62°F  calm  2 mph  4 mph  0.00"  76%  74%  53°F  53°F  N/A
Sun 11:00 PM  62.6°F  63°F  3 mph NW  3 mph  6 mph  0.00"  71%  72%  53°F  53°F  N/A
Sun 10:00 PM  63.9°F  64°F  2 mph W  3 mph  8 mph  0.00"  69%  68%  53°F  53°F  N/A
Sun 09:00 PM  65.8°F  66°F  3 mph SW  4 mph  10 mph  0.00"  64%  64%  53°F  53°F  N/A
Sun 08:00 PM  67.8°F  68°F  5 mph SW  5 mph  11 mph  0.00"  59%  59%  52°F  53°F  N/A
Sun 07:00 PM  70.6°F  71°F  6 mph SW  7 mph  12 mph  0.00"  53%  53%  52°F  52°F  N/A
Sun 06:00 PM  72.2°F  73°F  7 mph W  7 mph  13 mph  0.00"  49%  49%  52°F  52°F  N/A
Sun 05:00 PM  72.1°F  75°F  5 mph W  8 mph  14 mph  0.00"  50%  46%  52°F  52°F  N/A
Sun 04:00 PM  71.5°F  76°F  7 mph SW  8 mph  13 mph  0.00"  51%  45%  52°F  52°F  N/A
Sun 03:00 PM  70.4°F  76°F  6 mph SW  7 mph  13 mph  0.00"  54%  45%  52°F  52°F  N/A
Sun 02:00 PM  68.7°F  75°F  3 mph W  6 mph  12 mph  0.00"  55%  46%  51°F  52°F  N/A
Sun 01:00 PM  67.2°F  73°F  6 mph W  5 mph  10 mph  0.00"  57%  49%  51°F  53°F  N/A
Sun 12:00 PM  64.6°F  71°F  3 mph S  4 mph  6 mph  0.00"  62%  54%  51°F  53°F  N/A
Sun 11:00 AM  61.9°F  68°F  2 mph W  3 mph  7 mph  0.00"  71%  61%  52°F  53°F  N/A
Sun 10:00 AM  60.5°F  65°F  calm  3 mph  4 mph  0.00"  75%  67%  52°F  54°F  N/A
Sun 09:00 AM  59.2°F  63°F  2 mph NW  2 mph  6 mph  0.00"  78%  74%  52°F  54°F  N/A
Sun 08:00 AM  58.7°F  60°F  2 mph NW  2 mph  5 mph  0.00"  80%  79%  52°F  54°F  N/A
Sun 07:00 AM  57.9°F  59°F  3 mph W  1 mph  4 mph  0.00"  81%  82%  52°F  53°F  N/A
Sun 06:00 AM  57.7°F  58°F  2 mph W  2 mph  4 mph  0.00"  82%  81%  52°F  52°F  N/A
Sun 05:00 AM  57.4°F  58°F  3 mph W  2 mph  6 mph  0.00"  83%  81%  52°F  52°F  N/A
Sun 04:00 AM  57.1°F  59°F  2 mph NW  2 mph  6 mph  0.00"  84%  80%  52°F  52°F  N/A
Sun 03:00 AM  57.3°F  59°F  2 mph SW  2 mph  6 mph  0.00"  84%  79%  52°F  52°F  N/A
Sun 02:00 AM  57.4°F  60°F  2 mph SW  2 mph  5 mph  0.00"  82%  77%  52°F  52°F  N/A
Sun 01:00 AM  57.9°F  61°F  3 mph W  2 mph  5 mph  0.00"  81%  76%  52°F  53°F  N/A
Sun 12:00 AM  58.7°F  61°F  3 mph W  2 mph  7 mph  0.00"  80%  74%  52°F  53°F  N/A
Sat 11:00 PM  58.9°F  63°F  4 mph W  3 mph  6 mph  0.00"  79%  71%  52°F  53°F  N/A
Sat 10:00 PM  59.4°F  64°F  5 mph W  3 mph  11 mph  0.00"  78%  68%  52°F  53°F  N/A
Sat 09:00 PM  61.7°F  66°F  4 mph W  4 mph  11 mph  0.00"  73%  64%  53°F  53°F  N/A

  1. Current weather data. No green row appears if the current weather data is also the high or low for the current day.
  2. High temperature for the current day.
  3. Low temperature for the current day.

The Riverside (Presidential Park), California weather pages are a service of WeatherCurrents.
Copyright ©2024  WeatherCurrents. All rights reserved. - Submit questions and comments - Privacy Policy

This page automatically refreshes every 10 minutes.